Time;durP1;ratioP1;P1;durP2;ratioP2;P2;SDS_P1;SDS_P2;PMS_P1;PMS_P2;Temp;Humidity;BMP_temperature;BMP_pressure;BME280_temperature;BME280_humidity;BME280_pressure;Samples;Min_cycle;Max_cycle;Signal;HPM_P1;HPM_P2
2022/04/18 00:02:08;;;;;;;9.38;5.68;;;8.50;35.40;;;;;;5071755;28;20778;-34
2022/04/18 00:04:34;;;;;;;5.67;4.70;;;8.40;35.40;;;;;;5071831;28;20191;-33
2022/04/18 00:07:03;;;;;;;6.50;4.55;;;8.40;35.20;;;;;;5072162;28;20497;-33
2022/04/18 00:09:30;;;;;;;7.88;4.28;;;8.40;35.20;;;;;;5070478;28;20271;-33
2022/04/18 00:11:57;;;;;;;4.93;4.10;;;8.40;35.30;;;;;;5071772;28;20180;-33
2022/04/18 00:14:23;;;;;;;7.13;4.35;;;8.30;35.50;;;;;;5072009;28;20247;-33
2022/04/18 00:16:49;;;;;;;6.10;4.68;;;8.30;35.70;;;;;;5071749;28;20174;-33
2022/04/18 00:19:15;;;;;;;7.53;4.57;;;8.30;35.70;;;;;;5072002;28;20180;-33
2022/04/18 00:21:41;;;;;;;5.60;4.47;;;8.30;35.70;;;;;;5071511;28;21040;-33
2022/04/18 00:24:08;;;;;;;15.10;4.70;;;8.20;36.10;;;;;;5071396;28;20577;-32
2022/04/18 00:26:34;;;;;;;9.65;5.70;;;8.20;36.30;;;;;;5071630;28;20215;-33
2022/04/18 00:29:00;;;;;;;5.77;3.83;;;8.10;36.90;;;;;;5071925;28;20639;-33
2022/04/18 00:31:25;;;;;;;6.90;5.37;;;8.00;36.30;;;;;;5070313;28;20571;-33
2022/04/18 00:33:51;;;;;;;9.77;5.70;;;8.00;35.90;;;;;;5071615;28;20189;-33
2022/04/18 00:36:17;;;;;;;20.93;5.40;;;8.00;36.10;;;;;;5071995;28;20194;-33
2022/04/18 00:38:44;;;;;;;5.73;5.20;;;8.00;36.40;;;;;;5071890;28;20175;-33
2022/04/18 00:41:10;;;;;;;7.07;4.88;;;8.00;36.30;;;;;;5071779;28;20187;-33
2022/04/18 00:43:39;;;;;;;7.32;5.63;;;8.00;35.80;;;;;;5072011;28;20211;-33
2022/04/18 00:46:06;;;;;;;7.53;5.97;;;7.90;36.30;;;;;;5071969;28;20196;-33
2022/04/18 00:48:32;;;;;;;6.03;5.38;;;7.90;35.80;;;;;;5072131;28;20278;-33
2022/04/18 00:50:58;;;;;;;7.60;4.90;;;7.90;36.30;;;;;;5071676;28;20654;-33
2022/04/18 00:53:24;;;;;;;7.55;5.40;;;7.90;36.60;;;;;;5072075;28;20427;-33
2022/04/18 00:55:49;;;;;;;8.93;4.63;;;7.80;36.10;;;;;;5071475;28;20193;-33
2022/04/18 00:58:15;;;;;;;7.27;6.03;;;7.80;36.30;;;;;;5070081;28;20500;-33
2022/04/18 01:00:41;;;;;;;9.67;5.40;;;7.80;37.10;;;;;;5074388;28;20191;-33
2022/04/18 01:03:07;;;;;;;7.80;4.73;;;7.70;36.90;;;;;;5074919;28;20192;-33
2022/04/18 01:05:33;;;;;;;7.00;4.57;;;7.70;36.60;;;;;;5074812;28;20298;-33
2022/04/18 01:07:59;;;;;;;4.95;4.05;;;7.60;36.60;;;;;;5075002;28;20411;-33
2022/04/18 01:10:24;;;;;;;8.13;4.70;;;7.70;36.50;;;;;;5071507;28;20184;-33
2022/04/18 01:12:50;;;;;;;4.33;3.80;;;7.70;36.40;;;;;;5066368;28;20161;-33
2022/04/18 01:15:16;;;;;;;5.27;3.83;;;7.70;36.60;;;;;;5074782;28;20534;-33
2022/04/18 01:17:41;;;;;;;9.57;5.23;;;7.60;37.20;;;;;;5074787;28;20535;-33
2022/04/18 01:20:08;;;;;;;6.43;4.53;;;7.60;36.60;;;;;;5074579;28;20253;-33
2022/04/18 01:22:35;;;;;;;7.25;5.78;;;7.60;36.60;;;;;;5074396;28;20659;-33
2022/04/18 01:30:29;;;;;;;6.10;4.68;;;7.50;36.70;;;;;;5074285;28;20264;-33
2022/04/18 01:32:55;;;;;;;4.40;3.83;;;7.50;36.60;;;;;;5074389;28;20220;-32
2022/04/18 01:35:21;;;;;;;11.00;6.03;;;7.50;36.60;;;;;;5074441;28;20447;-32
2022/04/18 01:37:46;;;;;;;6.40;4.30;;;7.50;36.80;;;;;;5074330;28;20175;-32
2022/04/18 01:40:12;;;;;;;5.70;4.53;;;7.40;36.90;;;;;;5074392;28;20178;-32
2022/04/18 01:42:38;;;;;;;6.93;4.00;;;7.40;36.80;;;;;;5074039;28;20173;-33
2022/04/18 01:45:05;;;;;;;7.70;5.50;;;7.40;36.70;;;;;;5074102;28;20461;-32
2022/04/18 01:47:30;;;;;;;5.32;3.67;;;7.30;36.60;;;;;;5074522;28;20182;-33
2022/04/18 01:49:56;;;;;;;4.27;3.87;;;7.30;36.40;;;;;;5074213;28;20165;-32
2022/04/18 01:52:22;;;;;;;5.10;3.93;;;7.30;36.90;;;;;;5073815;28;20664;-33
2022/04/18 01:54:47;;;;;;;5.70;3.40;;;7.30;36.90;;;;;;5074128;28;20191;-32
2022/04/18 01:57:13;;;;;;;6.33;4.00;;;7.30;36.90;;;;;;5073965;28;20165;-33
2022/04/18 01:59:42;;;;;;;4.17;3.70;;;7.20;36.60;;;;;;5074230;28;20647;-33
2022/04/18 02:02:08;;;;;;;7.82;3.97;;;7.20;37.20;;;;;;5073710;28;20197;-33
2022/04/18 02:04:34;;;;;;;6.10;4.50;;;7.20;36.60;;;;;;5074558;28;20224;-33
2022/04/18 02:07:00;;;;;;;7.85;5.05;;;7.20;36.70;;;;;;5075384;28;20416;-33
2022/04/18 02:09:25;;;;;;;5.50;4.00;;;7.20;36.80;;;;;;5074786;28;20684;-33
2022/04/18 02:11:51;;;;;;;8.40;4.40;;;7.10;36.70;;;;;;5072534;28;20166;-33
2022/04/18 02:14:17;;;;;;;6.00;4.37;;;7.10;37.40;;;;;;5073795;28;20189;-33
2022/04/18 02:16:43;;;;;;;10.15;4.15;;;7.10;37.00;;;;;;5073690;28;20165;-33
2022/04/18 02:19:09;;;;;;;4.83;3.60;;;7.00;36.80;;;;;;5073604;28;20176;-33
2022/04/18 02:21:34;;;;;;;17.13;5.30;;;7.00;36.70;;;;;;5073195;28;20253;-33
2022/04/18 02:24:00;;;;;;;3.33;3.00;;;7.00;37.00;;;;;;5073206;28;20581;-33
2022/04/18 02:26:26;;;;;;;7.87;4.47;;;7.00;36.80;;;;;;5073352;28;20226;-33
2022/04/18 02:28:51;;;;;;;4.27;3.60;;;7.00;37.00;;;;;;5073418;28;20172;-33
2022/04/18 02:31:17;;;;;;;7.80;4.27;;;7.00;36.80;;;;;;5073300;28;20256;-33
2022/04/18 02:33:43;;;;;;;8.07;4.40;;;7.00;36.80;;;;;;5073168;28;20182;-33
2022/04/18 02:36:08;;;;;;;6.40;5.20;;;7.00;37.00;;;;;;5073304;28;20263;-33
2022/04/18 02:38:34;;;;;;;5.50;4.20;;;6.90;36.90;;;;;;5073180;28;20537;-33
2022/04/18 02:40:59;;;;;;;5.57;4.07;;;6.90;37.10;;;;;;5072857;28;20223;-33
2022/04/18 02:43:25;;;;;;;4.60;3.67;;;7.70;37.00;;;;;;5073007;28;20246;-33
2022/04/18 02:45:51;;;;;;;7.20;4.93;;;6.90;36.90;;;;;;5072927;28;20638;-33
2022/04/18 02:48:17;;;;;;;4.35;3.60;;;6.90;37.00;;;;;;5072928;28;20213;-33
2022/04/18 02:50:42;;;;;;;11.40;3.70;;;6.80;37.30;;;;;;5072675;28;20251;-33
2022/04/18 02:53:08;;;;;;;4.27;3.50;;;6.80;37.20;;;;;;5072794;28;20181;-33
2022/04/18 02:55:34;;;;;;;6.47;4.40;;;6.80;37.20;;;;;;5072854;28;20169;-32
2022/04/18 02:58:00;;;;;;;5.83;3.50;;;6.70;37.20;;;;;;5068162;28;20710;-33
2022/04/18 03:00:26;;;;;;;6.37;3.60;;;6.70;37.30;;;;;;5060882;28;20223;-33
2022/04/18 03:02:51;;;;;;;4.43;3.47;;;6.70;37.30;;;;;;5052687;28;20668;-33
2022/04/18 03:05:17;;;;;;;6.47;4.17;;;6.70;37.10;;;;;;5052497;28;20205;-32
2022/04/18 03:07:43;;;;;;;5.13;4.43;;;6.70;37.10;;;;;;5052642;28;20240;-33
2022/04/18 03:10:09;;;;;;;6.63;5.00;;;6.60;37.00;;;;;;5051605;28;20213;-33
2022/04/18 03:12:35;;;;;;;4.90;3.93;;;6.60;37.20;;;;;;5052543;28;20199;-32
2022/04/18 03:15:01;;;;;;;5.45;3.33;;;6.60;37.10;;;;;;5052428;28;20453;-33
2022/04/18 03:17:27;;;;;;;6.68;3.90;;;6.60;37.10;;;;;;5052492;28;20181;-33
2022/04/18 03:19:53;;;;;;;4.70;3.73;;;6.60;37.00;;;;;;5052574;28;20726;-33
2022/04/18 03:22:19;;;;;;;8.07;5.07;;;6.60;36.90;;;;;;5051921;28;20898;-33
2022/04/18 03:24:45;;;;;;;5.10;3.75;;;6.60;37.20;;;;;;5052159;28;20263;-33
2022/04/18 03:27:11;;;;;;;4.90;4.40;;;6.60;37.20;;;;;;5052277;28;20631;-33
2022/04/18 03:29:37;;;;;;;4.87;3.47;;;6.60;37.00;;;;;;5052245;28;20441;-32
2022/04/18 03:32:04;;;;;;;4.88;4.18;;;6.50;37.10;;;;;;5051988;28;20187;-33
2022/04/18 03:34:30;;;;;;;5.63;3.22;;;6.50;37.10;;;;;;5050756;28;20201;-32
2022/04/18 03:39:51;;;;;;;5.60;4.43;;;6.50;36.80;;;;;;5052209;28;20649;-33
2022/04/18 03:42:32;;;;;;;6.88;4.50;;;6.50;37.10;;;;;;5051297;28;20561;-33
2022/04/18 03:45:00;;;;;;;6.80;2.97;;;6.40;37.70;;;;;;5059019;28;20191;-33
2022/04/18 03:47:26;;;;;;;4.22;3.70;;;6.30;37.80;;;;;;5063734;28;20187;-33
2022/04/18 03:49:52;;;;;;;3.20;2.90;;;6.30;37.70;;;;;;5072043;28;20173;-33
2022/04/18 03:52:18;;;;;;;7.30;4.53;;;6.30;37.70;;;;;;5071785;28;20530;-32
2022/04/18 03:54:46;;;;;;;7.33;4.10;;;6.30;37.90;;;;;;5071889;28;20189;-33
2022/04/18 03:57:12;;;;;;;4.55;3.55;;;6.30;37.70;;;;;;5071927;28;20156;-33
2022/04/18 03:59:38;;;;;;;4.65;3.83;;;6.30;37.60;;;;;;5070692;28;20230;-33
2022/04/18 04:02:04;;;;;;;6.60;5.13;;;6.30;37.70;;;;;;5071766;28;20260;-33
2022/04/18 04:04:30;;;;;;;6.32;5.68;;;6.30;37.70;;;;;;5072133;28;20204;-32
2022/04/18 04:06:55;;;;;;;6.10;3.90;;;6.30;37.60;;;;;;5071752;28;20193;-32
2022/04/18 04:09:21;;;;;;;6.23;4.60;;;6.30;37.60;;;;;;5074746;28;20169;-32
2022/04/18 04:11:47;;;;;;;7.50;3.27;;;6.30;37.50;;;;;;5071604;28;20184;-33
2022/04/18 04:14:13;;;;;;;9.17;4.60;;;6.30;37.60;;;;;;5071777;28;20180;-32
2022/04/18 04:16:39;;;;;;;4.47;2.95;;;6.30;37.70;;;;;;5071868;28;20238;-32
2022/04/18 04:19:06;;;;;;;6.83;4.30;;;6.30;37.50;;;;;;5071941;28;20626;-32
2022/04/18 04:21:32;;;;;;;5.80;4.57;;;6.20;37.90;;;;;;5072236;28;20399;-32
2022/04/18 04:23:57;;;;;;;6.40;3.17;;;6.20;37.80;;;;;;5071679;28;20231;-32
2022/04/18 04:26:23;;;;;;;5.30;4.10;;;6.20;37.80;;;;;;5071959;28;20317;-32
2022/04/18 04:28:49;;;;;;;4.73;3.97;;;6.20;37.50;;;;;;5071742;28;20175;-33
2022/04/18 04:31:15;;;;;;;8.33;3.87;;;6.20;37.50;;;;;;5071486;28;20169;-32
2022/04/18 04:33:40;;;;;;;6.23;5.10;;;6.20;38.10;;;;;;5071523;28;20188;-32
2022/04/18 04:36:06;;;;;;;8.53;4.50;;;6.20;38.40;;;;;;5075381;28;20169;-32
2022/04/18 04:38:32;;;;;;;8.00;4.77;;;6.20;38.00;;;;;;5075503;28;20175;-32
2022/04/18 04:40:57;;;;;;;6.33;3.77;;;6.20;38.50;;;;;;5075321;28;20547;-32
2022/04/18 04:43:29;;;;;;;10.47;4.90;;;6.30;38.30;;;;;;5075338;28;20684;-32
2022/04/18 04:45:56;;;;;;;5.43;4.75;;;6.40;38.00;;;;;;5075177;28;20190;-32
2022/04/18 04:48:25;;;;;;;5.57;3.60;;;6.40;37.80;;;;;;5075404;28;20176;-32
2022/04/18 04:50:51;;;;;;;3.55;2.83;;;6.50;37.80;;;;;;5075157;28;20259;-32
2022/04/18 04:53:17;;;;;;;4.50;3.40;;;6.50;38.00;;;;;;5075154;28;20268;-32
2022/04/18 04:55:42;;;;;;;5.97;3.87;;;6.60;37.80;;;;;;5075247;28;20893;-32
2022/04/18 04:58:09;;;;;;;5.60;3.50;;;6.60;37.90;;;;;;5075074;28;20422;-32
2022/04/18 05:00:35;;;;;;;7.38;4.35;;;6.70;38.10;;;;;;5074842;28;20230;-32
2022/04/18 05:03:01;;;;;;;4.50;3.35;;;6.70;38.30;;;;;;5074875;28;20629;-32
2022/04/18 05:05:27;;;;;;;5.85;3.83;;;6.80;37.80;;;;;;5074917;28;20207;-32
2022/04/18 05:07:55;;;;;;;7.45;4.28;;;6.90;38.00;;;;;;5075477;28;20179;-32
2022/04/18 05:10:21;;;;;;;5.22;3.30;;;7.00;37.80;;;;;;5075876;28;20180;-32
2022/04/18 05:12:47;;;;;;;7.32;5.32;;;7.10;37.80;;;;;;5075860;28;20268;-32
2022/04/18 05:15:13;;;;;;;8.38;5.07;;;7.20;37.70;;;;;;5074970;28;20193;-32
2022/04/18 05:17:39;;;;;;;4.33;3.50;;;7.20;37.90;;;;;;5074583;28;20644;-33
2022/04/18 05:20:05;;;;;;;9.00;4.93;;;7.30;37.80;;;;;;5074680;28;20169;-33
2022/04/18 05:22:31;;;;;;;9.82;5.80;;;7.40;37.60;;;;;;5074593;28;20255;-33
2022/04/18 05:24:57;;;;;;;5.33;4.27;;;7.50;37.70;;;;;;5074374;28;20242;-33
2022/04/18 05:27:26;;;;;;;7.75;4.63;;;7.70;37.90;;;;;;5074553;28;20457;-33
2022/04/18 05:29:52;;;;;;;7.53;5.97;;;7.80;37.60;;;;;;5074772;28;20201;-34
2022/04/18 05:32:18;;;;;;;10.48;5.38;;;7.80;37.70;;;;;;5074156;28;20175;-33
2022/04/18 05:34:44;;;;;;;5.07;4.53;;;8.00;37.50;;;;;;5074389;28;20203;-33
2022/04/18 05:37:10;;;;;;;6.47;5.68;;;8.10;37.60;;;;;;5074403;28;20498;-33
2022/04/18 05:39:36;;;;;;;7.07;5.43;;;8.20;37.50;;;;;;5074608;28;20256;-33
2022/04/18 05:42:02;;;;;;;5.10;4.70;;;8.30;37.50;;;;;;5074204;28;20692;-33
2022/04/18 05:44:31;;;;;;;5.70;5.10;;;8.40;37.40;;;;;;5074237;28;20190;-33
2022/04/18 05:46:56;;;;;;;9.02;5.18;;;8.60;37.30;;;;;;5073937;28;20295;-33
2022/04/18 05:49:22;;;;;;;4.23;3.83;;;8.60;37.50;;;;;;5074197;28;20254;-33
2022/04/18 05:51:48;;;;;;;7.10;6.13;;;8.80;37.40;;;;;;5074018;28;20515;-33
2022/04/18 05:54:13;;;;;;;7.63;5.10;;;8.80;37.40;;;;;;5074172;28;20203;-33
2022/04/18 05:56:39;;;;;;;5.17;4.67;;;8.90;37.50;;;;;;5074096;28;20176;-33
2022/04/18 05:59:05;;;;;;;11.30;7.30;;;9.00;37.30;;;;;;5074290;28;20693;-33
2022/04/18 06:01:30;;;;;;;7.13;6.13;;;9.10;37.30;;;;;;5073650;28;20290;-33
2022/04/18 06:03:56;;;;;;;6.90;5.90;;;9.30;37.40;;;;;;5074149;28;20199;-33
2022/04/18 06:06:22;;;;;;;9.13;6.10;;;9.40;37.20;;;;;;5073771;28;20540;-33
2022/04/18 06:08:48;;;;;;;6.67;4.43;;;9.40;37.50;;;;;;5073825;28;20413;-33
2022/04/18 06:11:14;;;;;;;7.93;5.27;;;9.40;37.10;;;;;;5073459;28;20507;-33
2022/04/18 06:13:39;;;;;;;9.73;4.70;;;9.50;37.20;;;;;;5073665;28;20195;-33
2022/04/18 06:16:06;;;;;;;14.73;5.70;;;9.50;37.10;;;;;;5073532;28;20177;-33
2022/04/18 06:18:32;;;;;;;7.25;5.78;;;9.70;37.40;;;;;;5073402;28;20425;-33
2022/04/18 06:20:58;;;;;;;6.45;4.70;;;9.70;37.50;;;;;;5073275;28;20176;-33
2022/04/18 06:23:24;;;;;;;6.95;5.65;;;9.80;37.10;;;;;;5073376;28;20253;-33
2022/04/18 06:25:50;;;;;;;7.45;5.28;;;9.90;37.10;;;;;;5073350;28;20569;-33
2022/04/18 06:28:16;;;;;;;9.17;5.20;;;10.00;37.10;;;;;;5073341;28;20161;-33
2022/04/18 06:30:42;;;;;;;4.90;3.17;;;10.20;37.00;;;;;;5072972;28;20183;-33
2022/04/18 06:33:11;;;;;;;6.28;5.22;;;10.30;36.90;;;;;;5073426;28;20226;-33
2022/04/18 06:35:38;;;;;;;5.45;4.53;;;10.30;37.20;;;;;;5073207;28;20181;-33
2022/04/18 06:38:04;;;;;;;6.15;5.00;;;10.40;37.10;;;;;;5073235;28;20282;-33
2022/04/18 06:40:30;;;;;;;7.35;5.55;;;10.50;37.20;;;;;;5072895;28;20183;-33
2022/04/18 06:42:56;;;;;;;7.43;5.37;;;10.70;36.90;;;;;;5072908;28;20200;-33
2022/04/18 06:45:22;;;;;;;6.38;5.18;;;10.90;36.70;;;;;;5072827;28;20450;-33
2022/04/18 06:47:48;;;;;;;6.97;5.22;;;11.10;36.50;;;;;;5073017;28;20169;-33
2022/04/18 06:50:14;;;;;;;10.20;5.30;;;11.30;36.40;;;;;;5072892;28;20199;-33
2022/04/18 06:52:40;;;;;;;7.73;6.80;;;11.50;36.00;;;;;;5072587;28;20248;-33
2022/04/18 06:55:07;;;;;;;9.32;5.72;;;11.60;35.40;;;;;;5072783;28;20203;-33
2022/04/18 06:57:33;;;;;;;7.05;5.47;;;11.60;35.30;;;;;;5072550;28;20184;-33
2022/04/18 06:59:59;;;;;;;6.10;5.00;;;11.70;35.40;;;;;;5072591;28;20176;-33
2022/04/18 07:02:25;;;;;;;5.27;4.70;;;11.70;34.80;;;;;;5072673;28;20407;-33
2022/04/18 07:04:51;;;;;;;7.20;5.73;;;11.80;34.90;;;;;;5072866;28;20435;-33
2022/04/18 07:07:17;;;;;;;9.73;4.60;;;11.90;34.80;;;;;;5072601;28;20160;-33
2022/04/18 07:09:42;;;;;;;6.83;4.27;;;12.10;35.10;;;;;;5072507;28;20452;-33
2022/04/18 07:12:08;;;;;;;5.87;4.40;;;12.30;34.70;;;;;;5072262;28;20244;-33
2022/04/18 07:14:38;;;;;;;5.97;3.95;;;12.50;34.70;;;;;;5072553;28;20430;-33
2022/04/18 07:17:05;;;;;;;7.25;4.60;;;12.70;34.70;;;;;;5072409;28;20569;-33
2022/04/18 07:19:31;;;;;;;5.55;3.63;;;12.90;34.60;;;;;;5072547;28;20180;-33
2022/04/18 07:21:57;;;;;;;6.60;4.53;;;13.10;34.20;;;;;;5072360;28;20199;-31
2022/04/18 07:24:23;;;;;;;7.97;4.10;;;13.30;33.10;;;;;;5072186;28;20200;-30
2022/04/18 07:26:49;;;;;;;8.93;4.40;;;13.40;32.80;;;;;;5072443;28;20231;-31
2022/04/18 07:29:16;;;;;;;6.38;4.45;;;13.50;32.80;;;;;;5072490;28;20175;-31
2022/04/18 07:31:42;;;;;;;5.88;4.22;;;13.60;32.70;;;;;;5072175;28;20533;-31
2022/04/18 07:34:08;;;;;;;6.50;4.38;;;13.80;30.60;;;;;;5072105;28;20191;-30
2022/04/18 07:36:33;;;;;;;6.93;4.23;;;13.90;32.60;;;;;;5072733;28;20164;-31
2022/04/18 07:39:00;;;;;;;6.40;4.23;;;14.00;32.40;;;;;;5072103;28;20766;-31
2022/04/18 07:41:28;;;;;;;5.30;4.80;;;14.20;32.20;;;;;;5071842;28;20649;-31
2022/04/18 07:43:56;;;;;;;8.75;5.32;;;14.40;32.20;;;;;;5072001;28;20208;-31
2022/04/18 07:46:22;;;;;;;5.68;4.30;;;14.60;31.30;;;;;;5072193;28;20204;-31
2022/04/18 07:48:50;;;;;;;8.38;5.15;;;14.70;32.00;;;;;;5072565;28;20168;-33
2022/04/18 07:51:35;;;;;;;10.55;6.15;;;14.80;31.80;;;;;;5071771;28;20243;-33
2022/04/18 07:54:05;;;;;;;6.18;3.88;;;15.00;31.90;;;;;;5071931;28;20189;-33
2022/04/18 07:56:31;;;;;;;5.45;3.85;;;15.10;31.90;;;;;;5072329;28;20176;-33
2022/04/18 07:58:57;;;;;;;5.57;4.93;;;15.20;31.60;;;;;;5071877;28;20204;-33
2022/04/18 08:01:23;;;;;;;11.00;5.93;;;16.00;30.40;;;;;;5070357;28;20197;-33
2022/04/18 08:03:49;;;;;;;8.57;5.30;;;15.40;31.10;;;;;;5071701;28;20216;-33
2022/04/18 08:06:16;;;;;;;7.82;4.25;;;15.50;29.30;;;;;;5071937;28;20457;-33
2022/04/18 08:08:42;;;;;;;7.47;5.00;;;15.50;29.70;;;;;;5071792;28;20164;-31
2022/04/18 08:11:15;;;;;;;7.40;4.40;;;15.60;29.70;;;;;;5075768;28;20172;-31
2022/04/18 08:13:45;;;;;;;6.22;4.47;;;15.70;29.70;;;;;;5076599;28;20207;-31
2022/04/18 08:16:11;;;;;;;8.85;4.65;;;15.80;28.20;;;;;;5076614;28;20615;-31
2022/04/18 08:18:44;;;;;;;5.88;4.32;;;15.80;28.90;;;;;;5076448;28;20204;-31
2022/04/18 08:21:11;;;;;;;6.50;3.78;;;15.90;28.90;;;;;;5075505;28;20177;-31
2022/04/18 08:23:37;;;;;;;4.38;3.90;;;16.00;28.80;;;;;;5075717;28;20212;-31
2022/04/18 08:26:04;;;;;;;7.60;4.78;;;16.20;29.60;;;;;;5075784;28;20215;-31
2022/04/18 08:28:30;;;;;;;11.02;4.32;;;16.50;29.40;;;;;;5076311;28;20187;-31
2022/04/18 08:30:57;;;;;;;6.40;3.95;;;16.80;29.40;;;;;;5076135;28;20164;-31
2022/04/18 08:33:23;;;;;;;6.55;3.20;;;17.10;29.80;;;;;;5075719;28;20197;-31
2022/04/18 08:35:49;;;;;;;5.43;2.55;;;17.40;28.20;;;;;;5075663;28;20527;-31
2022/04/18 08:38:15;;;;;;;4.67;2.90;;;17.60;28.30;;;;;;5076117;28;20234;-31
2022/04/18 08:40:47;;;;;;;5.93;3.60;;;17.90;28.10;;;;;;5075347;28;21146;-31
2022/04/18 08:43:13;;;;;;;5.45;3.38;;;18.20;27.80;;;;;;5070207;28;20534;-31
2022/04/18 08:45:39;;;;;;;4.77;3.30;;;18.30;26.50;;;;;;5067469;28;20275;-31
2022/04/18 08:53:36;;;;;;;5.45;3.50;;;18.50;26.00;;;;;;5035408;28;20197;-31
2022/04/18 08:56:02;;;;;;;4.65;3.35;;;18.70;26.70;;;;;;5035171;28;20205;-32
2022/04/18 08:58:29;;;;;;;3.90;2.65;;;18.80;26.40;;;;;;5034806;28;20166;-32
2022/04/18 09:00:56;;;;;;;4.53;3.30;;;19.10;25.90;;;;;;5035201;28;20193;-31
2022/04/18 09:03:22;;;;;;;4.03;2.50;;;19.10;25.80;;;;;;5033852;28;20583;-32
2022/04/18 09:05:48;;;;;;;5.70;2.97;;;19.20;26.00;;;;;;5033637;28;20210;-32
2022/04/18 09:08:15;;;;;;;5.97;3.20;;;19.30;23.70;;;;;;5035737;28;20459;-32
2022/04/18 09:10:42;;;;;;;4.22;2.05;;;19.40;24.40;;;;;;5058598;28;20642;-32
2022/04/18 09:13:14;;;;;;;3.50;2.47;;;19.40;23.40;;;;;;5071998;28;20192;-32
2022/04/18 09:15:43;;;;;;;4.50;3.08;;;19.50;25.10;;;;;;5074764;28;20187;-32
2022/04/18 09:18:17;;;;;;;4.80;2.17;;;19.60;25.00;;;;;;5074540;28;20676;-32
2022/04/18 09:20:51;;;;;;;3.95;2.83;;;19.80;24.90;;;;;;5074177;28;20574;-32
2022/04/18 09:23:30;;;;;;;4.18;2.15;;;19.90;23.30;;;;;;5072904;28;20216;-32
2022/04/18 09:26:04;;;;;;;4.75;2.65;;;20.10;23.70;;;;;;5066287;28;20185;-32
2022/04/18 09:28:40;;;;;;;5.97;3.00;;;20.10;25.10;;;;;;5074547;28;20192;-32
2022/04/18 09:31:07;;;;;;;3.58;2.70;;;20.20;25.00;;;;;;5074643;28;20221;-32
2022/04/18 09:33:46;;;;;;;5.50;3.10;;;20.40;24.20;;;;;;5074080;28;20238;-32
2022/04/18 09:36:19;;;;;;;4.40;2.92;;;20.40;23.30;;;;;;5074246;28;20176;-32
2022/04/18 09:38:51;;;;;;;4.20;3.30;;;20.50;23.20;;;;;;5074298;28;20642;-32
2022/04/18 09:41:22;;;;;;;4.03;2.95;;;20.50;23.60;;;;;;5074153;28;20176;-32
2022/04/18 09:43:50;;;;;;;4.20;3.38;;;20.50;24.30;;;;;;5074017;28;20193;-32
2022/04/18 09:46:17;;;;;;;5.53;3.55;;;20.60;24.30;;;;;;5074103;28;20188;-32
2022/04/18 09:48:44;;;;;;;7.18;3.67;;;20.70;24.40;;;;;;5073968;28;20185;-32
2022/04/18 09:51:27;;;;;;;4.70;3.15;;;20.90;24.70;;;;;;5074056;28;20180;-32
2022/04/18 09:53:55;;;;;;;4.88;3.70;;;20.90;23.90;;;;;;5066398;28;20200;-32
2022/04/18 09:56:22;;;;;;;4.43;3.05;;;20.90;23.20;;;;;;5063837;28;20264;-33
2022/04/18 09:58:48;;;;;;;6.72;4.05;;;20.90;23.60;;;;;;5064032;28;20192;-32
2022/04/18 10:01:16;;;;;;;4.80;3.42;;;20.90;24.50;;;;;;5072127;28;20199;-32
2022/04/18 10:03:43;;;;;;;4.57;3.70;;;21.00;23.70;;;;;;5073677;28;20227;-32
2022/04/18 10:06:10;;;;;;;4.65;3.33;;;21.00;23.50;;;;;;5073924;28;20192;-32
2022/04/18 10:08:37;;;;;;;4.88;3.47;;;21.10;24.60;;;;;;5075305;28;20208;-32
2022/04/18 10:11:11;;;;;;;5.45;4.93;;;21.30;23.80;;;;;;5074750;28;20161;-32
2022/04/18 10:13:37;;;;;;;4.13;3.15;;;21.40;24.00;;;;;;5074975;28;20291;-32
2022/04/18 10:16:05;;;;;;;5.53;4.05;;;21.30;23.20;;;;;;5075627;28;20176;-33
2022/04/18 10:18:39;;;;;;;5.93;3.05;;;21.30;23.20;;;;;;5075082;28;20587;-33
2022/04/18 10:21:07;;;;;;;5.32;3.95;;;21.40;24.20;;;;;;5075045;28;20186;-32
2022/04/18 10:23:53;;;;;;;5.32;3.70;;;21.50;24.30;;;;;;5074669;28;20270;-32
2022/04/18 10:26:22;;;;;;;5.13;4.30;;;21.70;22.10;;;;;;5074643;28;20234;-32
2022/04/18 10:28:51;;;;;;;4.15;2.95;;;21.50;22.90;;;;;;5074639;28;20176;-32
2022/04/18 10:31:25;;;;;;;3.65;2.90;;;21.40;23.20;;;;;;5074214;28;20172;-32
2022/04/18 10:33:51;;;;;;;4.90;3.13;;;21.30;22.60;;;;;;5074116;28;20326;-32
2022/04/18 10:36:33;;;;;;;4.53;2.90;;;21.40;23.20;;;;;;5074597;28;20641;-32
2022/04/18 10:39:07;;;;;;;3.33;2.45;;;21.30;22.60;;;;;;5064706;28;20188;-32
2022/04/18 10:41:36;;;;;;;4.15;2.75;;;21.50;24.30;;;;;;5034192;28;20339;-32
2022/04/18 10:44:05;;;;;;;2.77;2.07;;;21.60;23.10;;;;;;5034203;28;20193;-32
2022/04/18 10:46:32;;;;;;;6.82;3.63;;;21.70;23.00;;;;;;5034320;28;20499;-32
2022/04/18 10:49:00;;;;;;;4.43;2.75;;;21.90;23.50;;;;;;5032848;28;20182;-32
2022/04/18 10:51:37;;;;;;;3.85;2.67;;;21.90;23.10;;;;;;5033962;28;20284;-33
2022/04/18 10:54:08;;;;;;;3.10;2.00;;;21.90;21.20;;;;;;5034602;28;20276;-32
2022/04/18 10:56:51;;;;;;;4.68;3.55;;;21.80;23.00;;;;;;5034155;28;20517;-32
2022/04/18 10:59:19;;;;;;;4.60;2.97;;;21.90;22.00;;;;;;5034097;28;20189;-32
2022/04/18 11:01:46;;;;;;;3.13;2.03;;;21.80;22.10;;;;;;5034748;28;20872;-32
2022/04/18 11:04:13;;;;;;;4.82;2.70;;;21.70;20.90;;;;;;5034175;28;20429;-32
2022/04/18 11:06:39;;;;;;;3.22;2.45;;;21.50;22.20;;;;;;5033976;28;20201;-33
2022/04/18 11:09:09;;;;;;;2.15;1.40;;;21.40;22.10;;;;;;5034111;28;20180;-32
2022/04/18 11:11:39;;;;;;;3.17;2.20;;;21.40;22.40;;;;;;5033825;28;20169;-32
2022/04/18 11:14:23;;;;;;;3.70;2.00;;;21.30;22.40;;;;;;5033915;28;20421;-32
2022/04/18 11:16:51;;;;;;;27.87;13.80;;;21.10;22.60;;;;;;5033935;28;20170;-32
2022/04/18 11:19:20;;;;;;;4.28;2.88;;;21.10;22.70;;;;;;5033868;28;20404;-32
2022/04/18 11:21:59;;;;;;;2.00;1.33;;;21.10;22.90;;;;;;5031903;28;20182;-32
2022/04/18 11:24:44;;;;;;;2.20;1.75;;;21.30;23.00;;;;;;5033348;28;20938;-32
2022/04/18 11:27:16;;;;;;;2.78;1.83;;;21.60;23.40;;;;;;5033576;28;20651;-32
2022/04/18 11:30:12;;;;;;;4.00;2.03;;;22.00;23.30;;;;;;5033395;28;20177;-32
2022/04/18 11:32:41;;;;;;;3.35;2.05;;;22.40;21.90;;;;;;5052836;28;20173;-32
2022/04/18 11:35:09;;;;;;;1.63;1.00;;;22.70;20.90;;;;;;5053332;28;20173;-32
2022/04/18 11:37:39;;;;;;;4.28;1.70;;;23.00;20.50;;;;;;5053365;28;20408;-32
2022/04/18 11:40:10;;;;;;;2.40;1.40;;;23.30;21.70;;;;;;5056200;28;20547;-32
2022/04/18 11:42:37;;;;;;;2.43;1.33;;;23.50;20.60;;;;;;5055104;28;20890;-33
2022/04/18 11:45:06;;;;;;;2.80;1.67;;;23.60;20.40;;;;;;5054615;28;20415;-32
2022/04/18 11:47:41;;;;;;;3.53;1.57;;;23.80;21.50;;;;;;5052972;28;20415;-33
2022/04/18 11:50:08;;;;;;;2.47;1.73;;;23.90;20.00;;;;;;5053532;28;20404;-32
2022/04/18 11:52:39;;;;;;;3.87;1.40;;;23.90;20.00;;;;;;5052844;28;20886;-32
2022/04/18 11:55:07;;;;;;;2.73;1.63;;;23.90;19.50;;;;;;5052264;28;20894;-32
2022/04/18 11:57:37;;;;;;;2.40;1.60;;;23.60;19.70;;;;;;5052012;28;20408;-32
2022/04/18 12:00:12;;;;;;;2.70;1.70;;;23.40;19.20;;;;;;5051833;28;20496;-32
2022/04/18 12:08:12;;;;;;;1.90;1.20;;;23.50;20.00;;;;;;5052374;28;20746;-32
2022/04/18 12:10:42;;;;;;;1.70;0.90;;;23.40;19.40;;;;;;5051838;28;20890;-32
2022/04/18 12:13:11;;;;;;;1.93;1.47;;;23.30;19.40;;;;;;5052252;28;20435;-32
2022/04/18 12:15:38;;;;;;;2.60;1.33;;;23.10;19.00;;;;;;5051713;28;20886;-32
2022/04/18 12:18:09;;;;;;;2.50;1.57;;;23.00;19.50;;;;;;5052442;28;20510;-32
2022/04/18 12:20:35;;;;;;;2.53;1.43;;;23.00;20.20;;;;;;5052274;28;20542;-32
2022/04/18 12:23:02;;;;;;;2.30;1.40;;;23.20;20.70;;;;;;5050420;28;20458;-32
2022/04/18 12:25:31;;;;;;;2.23;1.20;;;23.40;19.30;;;;;;5050288;28;20546;-32
2022/04/18 12:27:59;;;;;;;1.80;1.17;;;23.50;19.60;;;;;;5051787;28;20457;-32
2022/04/18 12:30:27;;;;;;;2.53;1.27;;;23.50;19.60;;;;;;5051692;28;20416;-32
2022/04/18 12:32:54;;;;;;;2.87;1.37;;;23.30;19.30;;;;;;5051494;28;20460;-32
2022/04/18 12:35:51;;;;;;;2.50;1.13;;;23.30;19.80;;;;;;5051901;28;20420;-32
2022/04/18 12:38:18;;;;;;;2.17;1.20;;;23.60;19.90;;;;;;5038144;28;20419;-32
2022/04/18 12:40:47;;;;;;;2.00;1.57;;;23.80;19.40;;;;;;5051005;28;20407;-32
2022/04/18 12:43:15;;;;;;;2.30;1.10;;;24.10;18.90;;;;;;5051378;28;20507;-32
2022/04/18 12:45:52;;;;;;;2.27;1.13;;;24.30;19.10;;;;;;5051181;28;20455;-32
2022/04/18 12:48:23;;;;;;;1.97;1.20;;;24.60;18.80;;;;;;5051408;28;20455;-33
2022/04/18 12:50:50;;;;;;;2.30;1.40;;;24.90;18.80;;;;;;5051353;28;20472;-33
2022/04/18 12:53:16;;;;;;;2.20;1.23;;;25.10;18.00;;;;;;5051920;28;20765;-32
2022/04/18 12:55:42;;;;;;;1.70;1.20;;;25.10;18.60;;;;;;5052831;28;20407;-32
2022/04/18 12:58:19;;;;;;;1.70;1.20;;;25.10;17.20;;;;;;5055176;28;20796;-33
2022/04/18 13:00:47;;;;;;;1.93;1.33;;;25.00;18.00;;;;;;5054841;28;20653;-32
2022/04/18 13:03:14;;;;;;;2.00;1.30;;;25.10;17.90;;;;;;5054956;28;20485;-32
2022/04/18 13:05:47;;;;;;;3.00;1.67;;;24.90;17.70;;;;;;5055026;28;20451;-33
2022/04/18 13:08:16;;;;;;;2.37;1.03;;;24.70;18.40;;;;;;5054919;28;20750;-32
2022/04/18 13:10:42;;;;;;;2.07;1.10;;;24.40;17.90;;;;;;5054805;28;20399;-32
2022/04/18 13:13:14;;;;;;;2.13;1.33;;;24.30;16.10;;;;;;5054863;28;20448;-32